Little Burnt Bay, Canada
Current Conditions -  °F | °C
As of 9:00 PM on Wednesday 17 Dec 2014 (Local Time) from CYQX Reporting Station
Overcast Overcast  
Wind Chill: 19°   Ceiling: 1400
Heat Index: 27°   Visibility: 15mi
Dew Point: 23°   Wind: 7mph
Humidity: 86%   Direction: 150°SSE
Pressure: 30.13"   Gusts: NA
Location:  49.33°N, 55.08°W
Report Text: CYQX 180000Z 15006KT 15SM OVC014 M03/M05 A3013 RMK SC8 SLP212
Loading
Personal Weather Stations






























Interactive Weather Map New forecast layout! Learn more

10-Day Weather Forecast

Advertisements
Track Severe Weather on mobile